createdAt,value
2018-07-23T00:00:34.408Z,15.90
2018-07-23T00:03:03.703Z,15.40
2018-07-23T00:05:32.988Z,15.80
2018-07-23T00:08:02.264Z,16.77
2018-07-23T00:10:31.668Z,16.23
2018-07-23T00:13:00.953Z,16.80
2018-07-23T00:15:30.264Z,16.20
2018-07-23T00:17:59.542Z,16.60
2018-07-23T00:20:28.877Z,15.87
2018-07-23T00:22:58.234Z,15.53
2018-07-23T00:25:27.576Z,15.63
2018-07-23T00:27:56.887Z,16.33
2018-07-23T00:30:26.268Z,17.97
2018-07-23T00:32:55.671Z,16.87
2018-07-23T00:35:25.015Z,17.60
2018-07-23T00:37:54.350Z,16.67
2018-07-23T00:40:23.680Z,15.73
2018-07-23T00:42:52.978Z,16.00
2018-07-23T00:45:22.293Z,16.70
2018-07-23T00:47:51.598Z,16.63
2018-07-23T00:50:21.005Z,16.90
2018-07-23T00:52:50.330Z,18.07
2018-07-23T00:55:19.636Z,17.80
2018-07-23T00:57:48.612Z,17.37
2018-07-23T01:00:17.805Z,16.30
2018-07-23T01:02:47.117Z,17.67
2018-07-23T01:05:17.470Z,15.87
2018-07-23T01:07:46.778Z,16.80
2018-07-23T01:10:16.115Z,16.37
2018-07-23T01:12:45.465Z,16.47
2018-07-23T01:15:14.421Z,16.43
2018-07-23T01:17:43.729Z,16.53
2018-07-23T01:20:13.082Z,15.53
2018-07-23T01:22:42.424Z,17.43
2018-07-23T01:25:11.891Z,17.33
2018-07-23T01:27:41.260Z,17.30
2018-07-23T01:30:10.634Z,16.27
2018-07-23T01:32:40.093Z,17.80
2018-07-23T01:35:09.405Z,17.33
2018-07-23T01:37:38.815Z,18.50
2018-07-23T01:40:08.173Z,19.10
2018-07-23T01:42:37.485Z,18.50
2018-07-23T01:45:06.829Z,18.17
2018-07-23T01:47:36.136Z,17.93
2018-07-23T01:50:05.528Z,18.73
2018-07-23T01:52:34.865Z,19.10
2018-07-23T01:55:04.274Z,18.90
2018-07-23T01:57:33.678Z,18.67
2018-07-23T02:00:03.074Z,19.20
2018-07-23T02:02:32.415Z,16.70
2018-07-23T02:05:01.772Z,19.10
2018-07-23T02:07:31.169Z,17.40
2018-07-23T02:10:00.572Z,18.03
2018-07-23T02:12:29.948Z,18.47
2018-07-23T02:14:59.322Z,18.90
2018-07-23T02:17:28.674Z,18.90
2018-07-23T02:19:58.038Z,18.23
2018-07-23T02:22:27.379Z,17.80
2018-07-23T02:24:56.809Z,19.83
2018-07-23T02:27:26.187Z,20.27
2018-07-23T02:29:55.605Z,19.50
2018-07-23T02:32:24.824Z,21.17
2018-07-23T02:34:54.029Z,18.80
2018-07-23T02:37:23.382Z,19.00
2018-07-23T02:39:52.769Z,19.10
2018-07-23T02:42:22.166Z,19.60
2018-07-23T02:44:51.512Z,19.87
2018-07-23T02:47:20.872Z,19.60
2018-07-23T02:49:50.238Z,19.87
2018-07-23T02:52:19.594Z,19.37
2018-07-23T02:54:48.942Z,19.87
2018-07-23T02:57:24.814Z,20.60
2018-07-23T02:59:54.211Z,19.90
2018-07-23T03:02:23.601Z,21.27
2018-07-23T03:04:52.886Z,19.53
2018-07-23T03:07:22.181Z,21.20
2018-07-23T03:09:51.523Z,20.63
2018-07-23T03:12:20.885Z,20.23
2018-07-23T03:14:51.275Z,21.30
2018-07-23T03:17:20.654Z,20.67
2018-07-23T03:19:49.998Z,21.80
2018-07-23T03:22:19.382Z,21.23
2018-07-23T03:24:48.694Z,19.97
2018-07-23T03:27:18.055Z,22.40
2018-07-23T03:29:47.409Z,22.03
2018-07-23T03:32:16.855Z,22.90
2018-07-23T03:34:46.250Z,23.00
2018-07-23T03:37:15.633Z,23.10
2018-07-23T03:39:44.962Z,23.47
2018-07-23T03:42:14.473Z,22.77
2018-07-23T03:44:43.825Z,23.23
2018-07-23T03:47:13.168Z,21.00
2018-07-23T03:49:42.577Z,22.90
2018-07-23T03:52:11.949Z,24.20
2018-07-23T03:54:41.393Z,22.17
2018-07-23T03:57:10.818Z,24.13
2018-07-23T03:59:40.304Z,22.20
2018-07-23T04:02:09.702Z,22.20
2018-07-23T04:04:39.082Z,23.60
2018-07-23T04:07:08.457Z,24.57
2018-07-23T04:09:37.838Z,24.77
2018-07-23T04:12:07.119Z,24.43
2018-07-23T04:14:36.531Z,23.60
2018-07-23T04:17:06.102Z,24.57
2018-07-23T04:19:35.437Z,23.30
2018-07-23T04:22:04.859Z,22.80
2018-07-23T04:24:34.257Z,24.03
2018-07-23T04:27:03.646Z,24.33
2018-07-23T04:29:33.025Z,23.57
2018-07-23T04:32:02.457Z,22.07
2018-07-23T04:34:31.819Z,24.10
2018-07-23T04:37:01.158Z,23.27
2018-07-23T04:39:30.578Z,23.90
2018-07-23T04:41:59.858Z,24.53
2018-07-23T04:44:29.153Z,23.27
2018-07-23T04:46:58.565Z,22.60
2018-07-23T04:49:28.105Z,23.53
2018-07-23T04:51:57.536Z,23.70
2018-07-23T04:54:26.834Z,24.20
2018-07-23T04:56:56.328Z,23.00
2018-07-23T04:59:25.729Z,23.63
2018-07-23T05:01:56.147Z,23.80
2018-07-23T05:04:25.469Z,24.00
2018-07-23T05:06:54.773Z,23.60
2018-07-23T05:09:24.153Z,23.83
2018-07-23T05:11:53.467Z,22.90
2018-07-23T05:14:22.749Z,23.33
2018-07-23T05:16:52.128Z,23.07
2018-07-23T05:19:21.389Z,21.77
2018-07-23T05:21:50.821Z,21.93
2018-07-23T05:24:20.149Z,22.77
2018-07-23T05:26:49.483Z,21.03
2018-07-23T05:29:18.763Z,19.17
2018-07-23T05:31:49.167Z,20.60
2018-07-23T05:34:18.498Z,22.87
2018-07-23T05:36:47.795Z,21.90
2018-07-23T05:39:17.093Z,21.47
2018-07-23T05:41:46.458Z,21.83
2018-07-23T05:46:48.074Z,21.03
2018-07-23T05:49:17.113Z,24.73
2018-07-23T05:51:46.293Z,23.40
2018-07-23T05:54:15.606Z,21.03
2018-07-23T05:56:44.916Z,20.10
2018-07-23T05:59:14.220Z,21.53
2018-07-23T06:01:43.498Z,20.10
2018-07-23T06:04:12.822Z,19.60
2018-07-23T06:06:42.174Z,20.37
2018-07-23T06:09:11.594Z,19.90
2018-07-23T06:11:40.872Z,18.40
2018-07-23T06:14:11.273Z,18.80
2018-07-23T06:16:40.602Z,17.23
2018-07-23T06:19:09.904Z,19.20
2018-07-23T06:21:39.253Z,18.43
2018-07-23T06:24:08.545Z,18.03
2018-07-23T06:26:37.972Z,18.10
2018-07-23T06:29:07.273Z,16.63
2018-07-23T06:31:36.606Z,16.33
2018-07-23T06:34:06.028Z,15.70
2018-07-23T06:36:35.352Z,17.13
2018-07-23T06:39:07.934Z,17.60
2018-07-23T06:41:37.612Z,15.60
2018-07-23T06:44:07.325Z,16.67
2018-07-23T06:46:36.687Z,16.40
2018-07-23T06:49:06.514Z,16.70
2018-07-23T06:51:35.876Z,16.17
2018-07-23T06:54:05.302Z,15.10
2018-07-23T06:56:34.610Z,17.33
2018-07-23T06:59:03.934Z,15.50
2018-07-23T07:01:33.243Z,13.77
2018-07-23T07:04:02.236Z,14.70
2018-07-23T07:06:31.463Z,14.67
2018-07-23T07:09:00.795Z,14.63
2018-07-23T07:11:30.076Z,15.03
2018-07-23T07:13:59.387Z,14.10
2018-07-23T07:16:28.710Z,13.90
2018-07-23T07:18:58.011Z,12.50
2018-07-23T07:21:27.299Z,13.83
2018-07-23T07:23:56.570Z,13.23
2018-07-23T07:26:25.885Z,13.40
2018-07-23T07:28:55.191Z,12.30
2018-07-23T07:31:24.657Z,12.33
2018-07-23T07:33:53.969Z,12.10
2018-07-23T07:36:23.280Z,11.33
2018-07-23T07:38:52.568Z,10.83
2018-07-23T07:41:21.877Z,13.23
2018-07-23T07:43:51.195Z,12.10
2018-07-23T07:46:20.532Z,11.00
2018-07-23T07:48:49.819Z,10.70
2018-07-23T07:51:19.234Z,10.57
2018-07-23T07:53:48.557Z,11.10
2018-07-23T07:56:17.842Z,10.80
2018-07-23T07:58:47.202Z,9.50
2018-07-23T08:01:16.490Z,8.97
2018-07-23T08:03:45.786Z,9.27
2018-07-23T08:06:15.201Z,9.23
2018-07-23T08:08:44.853Z,9.17
2018-07-23T08:11:14.309Z,8.80
2018-07-23T08:13:43.674Z,8.83
2018-07-23T08:16:13.017Z,8.80
2018-07-23T08:18:42.478Z,8.50
2018-07-23T08:21:11.877Z,9.63
2018-07-23T08:23:41.339Z,8.20
2018-07-23T08:26:10.749Z,8.23
2018-07-23T08:28:40.185Z,7.80
2018-07-23T08:31:09.623Z,8.93
2018-07-23T08:33:39.005Z,8.80
2018-07-23T08:36:08.443Z,7.50
2018-07-23T08:38:37.921Z,7.97
2018-07-23T08:41:07.360Z,7.80
2018-07-23T08:43:36.714Z,7.70
2018-07-23T08:46:06.182Z,7.90
2018-07-23T08:48:35.618Z,7.97
2018-07-23T08:51:04.987Z,7.67
2018-07-23T08:53:34.331Z,8.30
2018-07-23T08:56:03.763Z,8.40
2018-07-23T08:58:33.089Z,7.90
2018-07-23T09:01:02.546Z,7.80
2018-07-23T09:03:31.902Z,8.73
2018-07-23T09:06:01.293Z,8.70
2018-07-23T09:08:30.619Z,7.50
2018-07-23T09:10:59.941Z,8.17
2018-07-23T09:13:29.285Z,7.37
2018-07-23T09:15:58.606Z,8.03
2018-07-23T09:18:27.885Z,8.20
2018-07-23T09:20:57.252Z,7.90
2018-07-23T09:23:26.561Z,7.57
2018-07-23T09:25:55.908Z,7.70
2018-07-23T09:28:25.215Z,6.87
2018-07-23T09:30:55.576Z,6.73
2018-07-23T09:33:25.495Z,7.10
2018-07-23T09:35:54.859Z,7.60
2018-07-23T09:38:24.229Z,6.70
2018-07-23T09:40:53.586Z,7.00
2018-07-23T09:43:23.221Z,6.90
2018-07-23T09:45:52.548Z,7.00
2018-07-23T09:48:21.850Z,7.20
2018-07-23T09:50:51.158Z,6.03
2018-07-23T09:53:20.445Z,6.43
2018-07-23T09:55:49.718Z,7.13
2018-07-23T09:58:19.002Z,7.20
2018-07-23T10:00:53.793Z,6.50
2018-07-23T10:03:23.208Z,6.60
2018-07-23T10:05:52.513Z,5.87
2018-07-23T10:08:21.805Z,7.10
2018-07-23T10:10:51.233Z,6.03
2018-07-23T10:13:20.598Z,6.87
2018-07-23T10:15:49.937Z,5.93
2018-07-23T10:18:19.370Z,6.30
2018-07-23T10:20:49.274Z,6.27
2018-07-23T10:23:18.982Z,6.03
2018-07-23T10:25:48.390Z,5.97
2018-07-23T10:28:17.801Z,6.60
2018-07-23T10:30:47.174Z,6.20
2018-07-23T10:33:16.546Z,6.47
2018-07-23T10:35:45.901Z,5.97
2018-07-23T10:38:15.011Z,6.70
2018-07-23T10:40:44.335Z,7.27
2018-07-23T10:43:13.703Z,6.57
2018-07-23T10:45:43.066Z,6.73
2018-07-23T10:48:12.498Z,6.87
2018-07-23T10:50:41.945Z,6.60
2018-07-23T10:53:11.419Z,7.37
2018-07-23T10:55:40.902Z,6.80
2018-07-23T10:58:10.619Z,7.37
2018-07-23T11:00:39.988Z,6.77
2018-07-23T11:03:09.430Z,6.83
2018-07-23T11:05:38.789Z,7.03
2018-07-23T11:08:08.169Z,6.70
2018-07-23T11:10:37.625Z,6.50
2018-07-23T11:13:07.079Z,6.30
2018-07-23T11:15:36.459Z,8.07
2018-07-23T11:18:06.302Z,6.93
2018-07-23T11:20:35.740Z,7.37
2018-07-23T11:23:05.310Z,7.03
2018-07-23T11:25:41.090Z,7.40
2018-07-23T11:28:03.764Z,6.47
2018-07-23T11:30:33.108Z,6.97
2018-07-23T11:33:02.737Z,6.97
2018-07-23T11:35:32.215Z,6.50
2018-07-23T11:38:01.550Z,6.83
2018-07-23T11:40:31.018Z,6.70
2018-07-23T11:43:00.357Z,6.77
2018-07-23T11:45:29.753Z,6.50
2018-07-23T11:47:59.102Z,6.00
2018-07-23T11:50:28.499Z,6.60
2018-07-23T11:52:57.494Z,6.40
2018-07-23T11:55:26.957Z,6.33
2018-07-23T11:57:56.422Z,6.30
2018-07-23T12:00:25.826Z,5.67
2018-07-23T12:02:55.227Z,5.40
2018-07-23T12:05:24.551Z,6.27
2018-07-23T12:07:54.042Z,5.67
2018-07-23T12:10:23.357Z,6.40
2018-07-23T12:12:52.752Z,5.40
2018-07-23T12:15:22.018Z,5.67
2018-07-23T12:17:51.330Z,4.73
2018-07-23T12:20:20.294Z,5.90
2018-07-23T12:22:49.478Z,5.93
2018-07-23T12:25:18.730Z,5.57
2018-07-23T12:27:48.045Z,5.60
2018-07-23T12:30:17.383Z,6.07
2018-07-23T12:32:46.687Z,5.53
2018-07-23T12:35:16.040Z,5.63
2018-07-23T12:37:45.406Z,5.57
2018-07-23T12:40:14.705Z,6.07
2018-07-23T12:42:44.163Z,5.50
2018-07-23T12:45:13.554Z,5.03
2018-07-23T12:47:42.919Z,5.10
2018-07-23T12:50:12.258Z,5.93
2018-07-23T12:52:41.672Z,5.23
2018-07-23T12:55:11.019Z,5.83
2018-07-23T12:57:41.174Z,5.10
2018-07-23T13:00:10.771Z,4.80
2018-07-23T13:02:40.205Z,5.20
2018-07-23T13:05:09.529Z,4.77
2018-07-23T13:07:38.910Z,4.70
2018-07-23T13:10:08.292Z,5.30
2018-07-23T13:12:37.707Z,4.60
2018-07-23T13:15:08.095Z,4.30
2018-07-23T13:17:37.395Z,4.40
2018-07-23T13:20:06.760Z,4.73
2018-07-23T13:22:36.077Z,4.43
2018-07-23T13:25:05.470Z,4.67
2018-07-23T13:27:34.802Z,4.60
2018-07-23T13:30:04.338Z,5.23
2018-07-23T13:32:33.637Z,4.83
2018-07-23T13:35:02.935Z,4.77
2018-07-23T13:37:32.215Z,5.33
2018-07-23T13:40:01.237Z,4.60
2018-07-23T13:42:30.436Z,4.97
2018-07-23T13:44:59.868Z,5.27
2018-07-23T13:47:29.225Z,5.20
2018-07-23T13:49:58.595Z,5.20
2018-07-23T13:52:27.949Z,4.80
2018-07-23T13:54:57.550Z,5.10
2018-07-23T13:57:26.957Z,5.03
2018-07-23T13:59:56.341Z,5.20
2018-07-23T14:02:25.415Z,4.93
2018-07-23T14:04:54.662Z,5.23
2018-07-23T14:07:24.129Z,5.40
2018-07-23T14:09:53.095Z,5.63
2018-07-23T14:12:22.315Z,4.90
2018-07-23T14:14:51.597Z,5.23
2018-07-23T14:17:20.915Z,4.53
2018-07-23T14:19:50.181Z,4.63
2018-07-23T14:22:19.526Z,3.90
2018-07-23T14:24:48.889Z,4.80
2018-07-23T14:27:18.190Z,4.97
2018-07-23T14:29:47.466Z,4.67
2018-07-23T14:32:16.800Z,4.70
2018-07-23T14:34:46.163Z,4.60
2018-07-23T14:37:15.473Z,4.53
2018-07-23T14:39:44.774Z,4.60
2018-07-23T14:42:14.213Z,4.33
2018-07-23T14:44:43.521Z,4.87
2018-07-23T14:47:12.832Z,4.83
2018-07-23T14:49:42.158Z,4.70
2018-07-23T14:52:11.606Z,4.37
2018-07-23T14:54:40.956Z,4.60
2018-07-23T14:57:10.257Z,4.87
2018-07-23T14:59:39.660Z,4.43
2018-07-23T15:02:08.609Z,3.43
2018-07-23T15:04:37.861Z,4.77
2018-07-23T15:07:07.064Z,4.60
2018-07-23T15:09:36.380Z,4.17
2018-07-23T15:12:05.270Z,3.80
2018-07-23T15:14:34.505Z,3.87
2018-07-23T15:17:03.890Z,4.17
2018-07-23T15:19:33.353Z,3.80
2018-07-23T15:22:02.774Z,4.33
2018-07-23T15:24:31.749Z,4.50
2018-07-23T15:27:00.981Z,4.37
2018-07-23T15:29:30.462Z,4.10
2018-07-23T15:31:59.838Z,4.40
2018-07-23T15:34:28.864Z,4.33
2018-07-23T15:36:58.050Z,3.30
2018-07-23T15:39:27.486Z,4.20
2018-07-23T15:41:56.818Z,4.20
2018-07-23T15:44:26.278Z,4.20
2018-07-23T15:46:55.682Z,3.63
2018-07-23T15:49:25.092Z,3.73
2018-07-23T15:51:54.555Z,3.57
2018-07-23T15:54:23.918Z,4.00
2018-07-23T15:56:53.290Z,3.40
2018-07-23T15:59:22.692Z,3.63
2018-07-23T16:01:52.050Z,3.83
2018-07-23T16:04:21.394Z,3.77
2018-07-23T16:06:50.882Z,3.90
2018-07-23T16:09:19.894Z,4.10
2018-07-23T16:11:48.751Z,3.80
2018-07-23T16:14:17.926Z,4.20
2018-07-23T16:16:47.269Z,3.60
2018-07-23T16:19:16.693Z,4.20
2018-07-23T16:21:46.037Z,3.90
2018-07-23T16:24:15.409Z,4.50
2018-07-23T16:26:44.833Z,4.20
2018-07-23T16:29:14.120Z,4.47
2018-07-23T16:31:43.425Z,4.43
2018-07-23T16:34:13.794Z,4.10
2018-07-23T16:36:42.817Z,3.97
2018-07-23T16:39:13.421Z,3.60
2018-07-23T16:41:43.134Z,3.97
2018-07-23T16:44:12.458Z,3.67
2018-07-23T16:46:41.927Z,3.70
2018-07-23T16:49:11.285Z,4.17
2018-07-23T16:51:40.777Z,3.60
2018-07-23T16:54:10.091Z,3.67
2018-07-23T16:56:39.570Z,4.03
2018-07-23T16:59:08.877Z,4.30
2018-07-23T17:01:38.286Z,4.00
2018-07-23T17:04:07.677Z,5.07
2018-07-23T17:06:36.991Z,4.87
2018-07-23T17:09:09.537Z,4.77
2018-07-23T17:11:38.853Z,4.50
2018-07-23T17:14:08.465Z,5.30
2018-07-23T17:16:37.788Z,4.60
2018-07-23T17:19:07.253Z,4.50
2018-07-23T17:21:36.566Z,4.23
2018-07-23T17:24:06.085Z,4.27
2018-07-23T17:26:35.510Z,4.80
2018-07-23T17:29:04.852Z,4.80
2018-07-23T17:31:34.177Z,4.47
2018-07-23T17:34:03.634Z,4.60
2018-07-23T17:36:32.966Z,4.40
2018-07-23T17:39:02.306Z,5.47
2018-07-23T17:41:31.738Z,4.60
2018-07-23T17:44:01.149Z,4.50
2018-07-23T17:46:30.505Z,4.73
2018-07-23T17:48:59.813Z,5.20
2018-07-23T17:51:29.158Z,5.57
2018-07-23T17:53:58.510Z,5.53
2018-07-23T17:56:27.837Z,5.77
2018-07-23T17:58:57.683Z,5.80
2018-07-23T18:01:27.009Z,5.47
2018-07-23T18:03:56.416Z,5.30
2018-07-23T18:06:25.756Z,6.10
2018-07-23T18:08:55.109Z,5.37
2018-07-23T18:11:24.545Z,5.07
2018-07-23T18:13:53.794Z,5.90
2018-07-23T18:16:23.166Z,5.50
2018-07-23T18:18:52.488Z,5.30
2018-07-23T18:21:21.826Z,5.17
2018-07-23T18:23:51.113Z,6.30
2018-07-23T18:26:20.437Z,6.40
2018-07-23T18:28:49.851Z,5.30
2018-07-23T18:31:19.278Z,5.07
2018-07-23T18:33:48.619Z,5.53
2018-07-23T18:36:18.350Z,5.40
2018-07-23T18:38:47.758Z,5.73
2018-07-23T18:41:17.069Z,5.60
2018-07-23T18:43:46.399Z,5.90
2018-07-23T18:46:15.715Z,6.90
2018-07-23T18:49:26.813Z,5.93
2018-07-23T18:51:56.627Z,5.80
2018-07-23T18:54:27.248Z,6.37
2018-07-23T18:57:00.689Z,6.07
2018-07-23T18:59:30.169Z,6.30
2018-07-23T19:02:00.153Z,6.27
2018-07-23T19:04:29.511Z,5.70
2018-07-23T19:06:58.945Z,5.20
2018-07-23T19:09:28.982Z,5.83
2018-07-23T19:11:59.018Z,5.97
2018-07-23T19:14:28.357Z,6.13
2018-07-23T19:16:59.597Z,6.10
2018-07-23T19:19:29.928Z,5.40
2018-07-23T19:21:59.370Z,6.60
2018-07-23T19:24:28.680Z,6.07
2018-07-23T19:26:58.079Z,6.60
2018-07-23T19:29:27.439Z,7.10
2018-07-23T19:31:56.860Z,6.83
2018-07-23T19:34:26.199Z,7.50
2018-07-23T19:36:55.533Z,7.00
2018-07-23T19:39:24.850Z,7.00
2018-07-23T19:41:54.166Z,7.37
2018-07-23T19:44:23.534Z,6.90
2018-07-23T19:46:52.845Z,6.73
2018-07-23T19:49:22.252Z,7.20
2018-07-23T19:51:51.551Z,7.10
2018-07-23T19:54:20.927Z,8.63
2018-07-23T19:56:50.192Z,8.33
2018-07-23T19:59:19.541Z,8.30
2018-07-23T20:01:48.931Z,8.90
2018-07-23T20:04:18.181Z,8.77
2018-07-23T20:06:47.529Z,7.80
2018-07-23T20:09:16.886Z,7.70
2018-07-23T20:11:46.290Z,8.43
2018-07-23T20:14:15.713Z,12.03
2018-07-23T20:16:45.105Z,11.93
2018-07-23T20:19:14.465Z,11.57
2018-07-23T20:21:44.842Z,12.63
2018-07-23T20:24:14.201Z,10.80
2018-07-23T20:26:43.552Z,10.77
2018-07-23T20:29:12.927Z,10.07
2018-07-23T20:31:42.301Z,9.07
2018-07-23T20:34:11.641Z,10.83
2018-07-23T20:36:41.085Z,10.73
2018-07-23T20:39:10.466Z,10.53
2018-07-23T20:41:39.925Z,9.77
2018-07-23T20:44:09.266Z,9.70
2018-07-23T20:46:38.925Z,9.97
2018-07-23T20:49:08.345Z,10.20
2018-07-23T20:51:37.690Z,9.30
2018-07-23T20:54:07.059Z,9.97
2018-07-23T20:56:36.503Z,9.80
2018-07-23T20:59:06.078Z,10.57
2018-07-23T21:01:35.449Z,10.00
2018-07-23T21:04:04.832Z,9.53
2018-07-23T21:06:34.210Z,10.57
2018-07-23T21:09:04.270Z,8.83
2018-07-23T21:11:33.622Z,9.83
2018-07-23T21:14:03.013Z,9.00
2018-07-23T21:16:32.397Z,9.17
2018-07-23T21:19:01.810Z,10.10
2018-07-23T21:21:31.157Z,8.70
2018-07-23T21:24:00.138Z,8.97
2018-07-23T21:26:29.377Z,10.77
2018-07-23T21:28:58.767Z,9.47
2018-07-23T21:31:28.121Z,9.70
2018-07-23T21:33:57.485Z,9.83
2018-07-23T21:36:26.930Z,10.17
2018-07-23T21:38:56.302Z,9.47
2018-07-23T21:41:25.796Z,10.00
2018-07-23T21:43:55.134Z,9.03
2018-07-23T21:46:24.449Z,9.70
2018-07-23T21:48:53.806Z,9.90
2018-07-23T21:51:23.201Z,10.67
2018-07-23T21:53:52.541Z,10.13
2018-07-23T21:56:21.881Z,10.40
2018-07-23T21:58:51.264Z,10.03
2018-07-23T22:01:20.629Z,10.33
2018-07-23T22:03:50.072Z,10.87
2018-07-23T22:06:22.942Z,9.43
2018-07-23T22:08:54.015Z,11.23
2018-07-23T22:11:23.293Z,9.60
2018-07-23T22:13:52.549Z,10.13
2018-07-23T22:16:21.850Z,10.10
2018-07-23T22:18:51.139Z,10.47
2018-07-23T22:21:20.458Z,10.03
2018-07-23T22:23:49.710Z,9.70
2018-07-23T22:26:18.673Z,11.30
2018-07-23T22:28:47.846Z,11.43
2018-07-23T22:31:17.161Z,10.40
2018-07-23T22:33:46.487Z,10.30
2018-07-23T22:36:15.820Z,10.30
2018-07-23T22:38:45.109Z,11.10
2018-07-23T22:41:14.413Z,10.60
2018-07-23T22:43:43.673Z,10.40
2018-07-23T22:46:12.981Z,10.73
2018-07-23T22:48:42.241Z,11.13
2018-07-23T22:51:11.577Z,11.53
2018-07-23T22:53:40.834Z,12.60
2018-07-23T22:56:10.150Z,12.07
2018-07-23T22:58:39.479Z,10.97
2018-07-23T23:01:08.838Z,11.77
2018-07-23T23:03:38.098Z,11.20
2018-07-23T23:06:07.430Z,12.07
2018-07-23T23:08:36.778Z,10.90
2018-07-23T23:11:06.073Z,12.10
2018-07-23T23:13:35.398Z,12.57
2018-07-23T23:16:04.705Z,11.53
2018-07-23T23:18:34.039Z,13.00
2018-07-23T23:21:03.442Z,12.43
2018-07-23T23:23:33.741Z,10.43
2018-07-23T23:26:03.024Z,12.63
2018-07-23T23:28:32.355Z,12.60
2018-07-23T23:31:01.682Z,12.43
2018-07-23T23:33:30.971Z,11.53
2018-07-23T23:36:00.317Z,12.37
2018-07-23T23:38:29.650Z,12.73
2018-07-23T23:40:58.915Z,11.50
2018-07-23T23:43:28.207Z,11.17
2018-07-23T23:45:57.481Z,12.23
2018-07-23T23:48:26.769Z,12.50
2018-07-23T23:50:56.227Z,12.23
2018-07-23T23:53:25.557Z,12.87
2018-07-23T23:55:54.886Z,13.20
2018-07-23T23:58:24.253Z,13.27
